Time,TemperatureF,DewpointF,PressureIn,WindDirection,WindDirectionDegrees,WindSpeedMPH,WindSpeedGustMPH,Humidity,HourlyPrecipIn,Conditions,Clouds,dailyrainin,SolarRadiationWatts/m^2,SoftwareType,DateUTC
2013-04-16 00:00:00,58.6,48.0,30.03,SE,139,3.0,15.0,68,0.00,,,0.00,0,HR-IXPWINDi_r2_v1.2.,2013-04-16 04:00:00,
2013-04-16 00:05:00,58.4,48.2,30.03,SE,142,9.0,11.0,69,0.00,,,0.00,0,HR-IXPWINDi_r2_v1.2.,2013-04-16 04:05:00,
2013-04-16 00:10:00,58.4,48.2,30.02,SE,144,5.0,12.0,69,0.00,,,0.00,0,HR-IXPWINDi_r2_v1.2.,2013-04-16 04:10:00,
2013-04-16 00:15:00,58.3,48.1,30.02,SSE,151,4.0,12.0,69,0.00,,,0.00,0,HR-IXPWINDi_r2_v1.2.,2013-04-16 04:15:00,
2013-04-16 00:20:00,58.3,48.5,30.02,SE,141,3.0,11.0,70,0.00,,,0.00,0,HR-IXPWINDi_r2_v1.2.,2013-04-16 04:20:00,
2013-04-16 00:25:00,58.1,48.3,30.02,SE,136,5.0,10.0,70,0.00,,,0.00,0,HR-IXPWINDi_r2_v1.2.,2013-04-16 04:25:00,
2013-04-16 00:30:00,58.0,48.2,30.02,SE,125,4.0,10.0,70,0.00,,,0.00,0,HR-IXPWINDi_r2_v1.2.,2013-04-16 04:30:00,
2013-04-16 00:36:00,58.0,48.6,30.02,SSE,159,4.0,7.0,71,0.00,,,0.00,0,HR-IXPWINDi_r2_v1.2.,2013-04-16 04:36:00,
2013-04-16 00:41:00,57.8,48.4,30.02,SE,144,0.0,8.0,71,0.00,,,0.00,0,HR-IXPWINDi_r2_v1.2.,2013-04-16 04:41:00,
2013-04-16 00:46:00,57.8,48.4,30.02,SE,144,2.0,8.0,71,0.00,,,0.00,0,HR-IXPWINDi_r2_v1.2.,2013-04-16 04:46:00,
2013-04-16 00:51:00,57.8,48.4,30.02,SE,139,5.0,8.0,71,0.00,,,0.00,0,HR-IXPWINDi_r2_v1.2.,2013-04-16 04:51:00,
2013-04-16 00:57:00,57.6,48.6,30.02,SE,139,2.0,11.0,72,0.00,,,0.00,0,HR-IXPWINDi_r2_v1.2.,2013-04-16 04:57:00,
2013-04-16 01:02:00,57.5,48.5,30.02,SE,134,3.0,11.0,72,0.00,,,0.00,0,HR-IXPWINDi_r2_v1.2.,2013-04-16 05:02:00,
2013-04-16 01:07:00,57.5,48.5,30.02,SSE,163,0.0,7.0,72,0.00,,,0.00,0,HR-IXPWINDi_r2_v1.2.,2013-04-16 05:07:00,
2013-04-16 01:12:00,57.3,48.3,30.02,SSE,161,3.0,7.0,72,0.00,,,0.00,0,HR-IXPWINDi_r2_v1.2.,2013-04-16 05:12:00,
2013-04-16 01:17:00,57.2,48.2,30.02,SE,137,1.0,7.0,72,0.00,,,0.00,0,HR-IXPWINDi_r2_v1.2.,2013-04-16 05:17:00,
2013-04-16 01:23:00,57.2,48.6,30.02,SE,137,0.0,6.0,73,0.00,,,0.00,0,HR-IXPWINDi_r2_v1.2.,2013-04-16 05:23:00,
2013-04-16 01:28:00,57.0,48.4,30.02,SE,137,2.0,5.0,73,0.00,,,0.00,0,HR-IXPWINDi_r2_v1.2.,2013-04-16 05:28:00,
2013-04-16 01:33:00,57.0,48.4,30.02,SE,137,0.0,5.0,73,0.00,,,0.00,0,HR-IXPWINDi_r2_v1.2.,2013-04-16 05:33:00,
2013-04-16 01:38:00,56.9,48.3,30.02,SE,137,3.0,5.0,73,0.00,,,0.00,0,HR-IXPWINDi_r2_v1.2.,2013-04-16 05:38:00,
2013-04-16 01:44:00,56.7,48.4,30.02,SSE,151,0.0,6.0,74,0.00,,,0.00,0,HR-IXPWINDi_r2_v1.2.,2013-04-16 05:44:00,
2013-04-16 01:49:00,56.7,48.4,30.02,SSE,151,0.0,6.0,74,0.00,,,0.00,0,HR-IXPWINDi_r2_v1.2.,2013-04-16 05:49:00,
2013-04-16 01:54:00,56.6,48.4,30.02,SSE,151,0.0,3.0,74,0.00,,,0.00,0,HR-IXPWINDi_r2_v1.2.,2013-04-16 05:54:00,
2013-04-16 02:00:00,56.5,48.3,30.02,SSE,151,0.0,1.0,74,0.00,,,0.00,0,HR-IXPWINDi_r2_v1.2.,2013-04-16 06:00:00,
2013-04-16 02:05:00,56.2,48.3,30.02,SSE,151,0.0,1.0,75,0.00,,,0.00,0,HR-IXPWINDi_r2_v1.2.,2013-04-16 06:05:00,
2013-04-16 02:10:00,56.0,48.1,30.02,SSE,151,2.0,2.0,75,0.00,,,0.00,0,HR-IXPWINDi_r2_v1.2.,2013-04-16 06:10:00,
2013-04-16 02:15:00,55.7,47.8,30.02,SSE,151,1.0,4.0,75,0.00,,,0.00,0,HR-IXPWINDi_r2_v1.2.,2013-04-16 06:15:00,
2013-04-16 02:20:00,55.4,47.9,30.02,SSE,151,1.0,4.0,76,0.00,,,0.00,0,HR-IXPWINDi_r2_v1.2.,2013-04-16 06:20:00,
2013-04-16 02:25:00,55.1,48.0,30.01,SSE,151,3.0,7.0,77,0.00,,,0.00,0,HR-IXPWINDi_r2_v1.2.,2013-04-16 06:25:00,
2013-04-16 02:30:00,55.0,48.2,30.01,SSE,148,0.0,7.0,78,0.00,,,0.00,0,HR-IXPWINDi_r2_v1.2.,2013-04-16 06:30:00,
2013-04-16 02:35:00,54.8,48.0,30.01,SSE,148,1.0,7.0,78,0.00,,,0.00,0,HR-IXPWINDi_r2_v1.2.,2013-04-16 06:35:00,
2013-04-16 02:41:00,54.7,48.3,30.01,SSE,148,0.0,5.0,79,0.00,,,0.00,0,HR-IXPWINDi_r2_v1.2.,2013-04-16 06:41:00,
2013-04-16 02:46:00,54.7,48.6,30.01,SE,146,0.0,5.0,80,0.00,,,0.00,0,HR-IXPWINDi_r2_v1.2.,2013-04-16 06:46:00,
2013-04-16 02:51:00,54.7,48.6,30.01,SE,139,0.0,4.0,80,0.00,,,0.00,0,HR-IXPWINDi_r2_v1.2.,2013-04-16 06:51:00,
2013-04-16 02:56:00,54.7,48.6,30.00,SE,135,0.0,2.0,80,0.00,,,0.00,0,HR-IXPWINDi_r2_v1.2.,2013-04-16 06:56:00,
2013-04-16 03:01:00,54.8,48.7,30.00,ESE,111,0.0,2.0,80,0.00,,,0.00,0,HR-IXPWINDi_r2_v1.2.,2013-04-16 07:01:00,
2013-04-16 03:06:00,54.8,48.7,30.00,ESE,111,0.0,2.0,80,0.00,,,0.00,0,HR-IXPWINDi_r2_v1.2.,2013-04-16 07:06:00,
2013-04-16 03:11:00,54.7,48.6,30.00,ESE,110,0.0,2.0,80,0.00,,,0.00,0,HR-IXPWINDi_r2_v1.2.,2013-04-16 07:11:00,
2013-04-16 03:16:00,54.7,48.6,30.00,ESE,110,0.0,1.0,80,0.00,,,0.00,0,HR-IXPWINDi_r2_v1.2.,2013-04-16 07:16:00,
2013-04-16 03:21:00,54.4,48.3,30.00,ESE,110,0.0,1.0,80,0.00,,,0.00,0,HR-IXPWINDi_r2_v1.2.,2013-04-16 07:21:00,
2013-04-16 03:27:00,54.2,48.1,30.00,ESE,110,0.0,1.0,80,0.00,,,0.00,0,HR-IXPWINDi_r2_v1.2.,2013-04-16 07:27:00,
2013-04-16 03:32:00,53.9,47.8,30.00,ESE,110,0.0,1.0,80,0.00,,,0.00,0,HR-IXPWINDi_r2_v1.2.,2013-04-16 07:32:00,
2013-04-16 03:37:00,53.8,48.0,30.00,ESE,110,0.0,1.0,81,0.00,,,0.00,0,HR-IXPWINDi_r2_v1.2.,2013-04-16 07:37:00,
2013-04-16 03:42:00,53.8,48.4,30.00,ESE,110,1.0,1.0,82,0.00,,,0.00,0,HR-IXPWINDi_r2_v1.2.,2013-04-16 07:42:00,
2013-04-16 03:47:00,53.6,48.2,30.00,ESE,110,0.0,1.0,82,0.00,,,0.00,0,HR-IXPWINDi_r2_v1.2.,2013-04-16 07:47:00,
2013-04-16 03:52:00,53.5,48.1,30.00,ESE,110,0.0,1.0,82,0.00,,,0.00,0,HR-IXPWINDi_r2_v1.2.,2013-04-16 07:52:00,
2013-04-16 03:58:00,52.9,47.2,30.00,ESE,110,0.0,1.0,81,0.00,,,0.00,0,HR-IXPWINDi_r2_v1.2.,2013-04-16 07:58:00,
2013-04-16 04:03:00,52.3,46.6,30.00,ESE,110,0.0,1.0,81,0.00,,,0.00,0,HR-IXPWINDi_r2_v1.2.,2013-04-16 08:03:00,
2013-04-16 04:08:00,52.2,46.8,30.00,ESE,110,0.0,1.0,82,0.00,,,0.00,0,HR-IXPWINDi_r2_v1.2.,2013-04-16 08:08:00,
2013-04-16 04:13:00,52.3,47.5,30.00,ESE,110,0.0,1.0,84,0.00,,,0.00,0,HR-IXPWINDi_r2_v1.2.,2013-04-16 08:13:00,
2013-04-16 04:19:00,52.5,48.1,30.00,ESE,111,0.0,5.0,85,0.00,,,0.00,0,HR-IXPWINDi_r2_v1.2.,2013-04-16 08:19:00,
2013-04-16 04:24:00,52.6,48.5,29.99,NE,46,0.0,5.0,86,0.00,,,0.00,0,HR-IXPWINDi_r2_v1.2.,2013-04-16 08:24:00,
2013-04-16 04:29:00,52.6,48.5,29.99,SE,132,0.0,6.0,86,0.00,,,0.00,0,HR-IXPWINDi_r2_v1.2.,2013-04-16 08:29:00,
2013-04-16 04:34:00,52.8,48.7,29.99,SE,142,2.0,9.0,86,0.00,,,0.00,0,HR-IXPWINDi_r2_v1.2.,2013-04-16 08:34:00,
2013-04-16 04:39:00,52.8,48.7,29.99,SE,128,0.0,9.0,86,0.00,,,0.00,0,HR-IXPWINDi_r2_v1.2.,2013-04-16 08:39:00,
2013-04-16 04:44:00,52.8,48.7,29.99,SE,132,0.0,7.0,86,0.00,,,0.00,0,HR-IXPWINDi_r2_v1.2.,2013-04-16 08:44:00,
2013-04-16 04:49:00,53.1,49.3,29.99,SE,132,0.0,7.0,87,0.00,,,0.00,0,HR-IXPWINDi_r2_v1.2.,2013-04-16 08:49:00,
2013-04-16 04:54:00,53.2,49.1,30.00,SE,132,0.0,2.0,86,0.00,,,0.00,0,HR-IXPWINDi_r2_v1.2.,2013-04-16 08:54:00,
2013-04-16 04:59:00,53.2,49.1,30.00,SE,132,0.0,1.0,86,0.00,,,0.00,0,HR-IXPWINDi_r2_v1.2.,2013-04-16 08:59:00,
2013-04-16 05:04:00,53.2,48.7,30.00,SE,132,0.0,1.0,85,0.00,,,0.00,0,HR-IXPWINDi_r2_v1.2.,2013-04-16 09:04:00,
2013-04-16 05:10:00,52.9,48.5,30.00,SE,132,0.0,3.0,85,0.00,,,0.00,0,HR-IXPWINDi_r2_v1.2.,2013-04-16 09:10:00,
2013-04-16 05:15:00,52.8,48.4,30.00,SE,132,1.0,3.0,85,0.00,,,0.00,0,HR-IXPWINDi_r2_v1.2.,2013-04-16 09:15:00,
2013-04-16 05:20:00,52.6,48.2,30.00,SE,132,0.0,3.0,85,0.00,,,0.00,0,HR-IXPWINDi_r2_v1.2.,2013-04-16 09:20:00,
2013-04-16 05:25:00,52.5,48.1,30.00,SE,132,0.0,1.0,85,0.00,,,0.00,0,HR-IXPWINDi_r2_v1.2.,2013-04-16 09:25:00,
2013-04-16 05:30:00,52.3,48.2,30.00,SE,132,0.0,3.0,86,0.00,,,0.00,0,HR-IXPWINDi_r2_v1.2.,2013-04-16 09:30:00,
2013-04-16 05:35:00,52.2,48.1,30.00,SE,132,0.0,4.0,86,0.00,,,0.00,0,HR-IXPWINDi_r2_v1.2.,2013-04-16 09:35:00,
2013-04-16 05:40:00,52.0,47.9,30.01,SE,132,0.0,4.0,86,0.00,,,0.00,0,HR-IXPWINDi_r2_v1.2.,2013-04-16 09:40:00,
2013-04-16 05:45:00,52.0,48.2,30.01,SE,132,0.0,1.0,87,0.00,,,0.00,0,HR-IXPWINDi_r2_v1.2.,2013-04-16 09:45:00,
2013-04-16 05:50:00,51.9,48.1,30.01,ESE,118,2.0,4.0,87,0.00,,,0.00,0,HR-IXPWINDi_r2_v1.2.,2013-04-16 09:50:00,
2013-04-16 05:55:00,51.9,48.1,30.01,South,180,0.0,4.0,87,0.00,,,0.00,0,HR-IXPWINDi_r2_v1.2.,2013-04-16 09:55:00,
2013-04-16 06:01:00,51.7,48.2,30.01,South,178,0.0,3.0,88,0.00,,,0.00,0,HR-IXPWINDi_r2_v1.2.,2013-04-16 10:01:00,
2013-04-16 06:06:00,51.9,48.4,30.01,SE,146,0.0,3.0,88,0.00,,,0.00,0,HR-IXPWINDi_r2_v1.2.,2013-04-16 10:06:00,
2013-04-16 06:11:00,52.0,48.8,30.02,SE,146,0.0,2.0,89,0.00,,,0.00,0,HR-IXPWINDi_r2_v1.2.,2013-04-16 10:11:00,
2013-04-16 06:16:00,52.2,49.0,30.02,SE,146,0.0,4.0,89,0.00,,,0.00,0,HR-IXPWINDi_r2_v1.2.,2013-04-16 10:16:00,
2013-04-16 06:21:00,52.5,49.3,30.02,SE,131,0.0,4.0,89,0.00,,,0.00,0,HR-IXPWINDi_r2_v1.2.,2013-04-16 10:21:00,
2013-04-16 06:26:00,52.6,49.4,30.02,SE,131,0.0,2.0,89,0.00,,,0.00,0,HR-IXPWINDi_r2_v1.2.,2013-04-16 10:26:00,
2013-04-16 06:31:00,52.9,49.4,30.02,SE,137,0.0,2.0,88,0.00,,,0.00,0,HR-IXPWINDi_r2_v1.2.,2013-04-16 10:31:00,
2013-04-16 06:36:00,53.1,49.9,30.02,SE,137,0.0,2.0,89,0.00,,,0.00,0,HR-IXPWINDi_r2_v1.2.,2013-04-16 10:36:00,
2013-04-16 06:41:00,53.2,49.7,30.02,SE,137,0.0,2.0,88,0.00,,,0.00,0,HR-IXPWINDi_r2_v1.2.,2013-04-16 10:41:00,
2013-04-16 06:46:00,53.2,49.7,30.02,SE,137,0.0,3.0,88,0.00,,,0.00,5,HR-IXPWINDi_r2_v1.2.,2013-04-16 10:46:00,
2013-04-16 06:51:00,53.3,49.8,30.03,SE,137,1.0,3.0,88,0.00,,,0.00,7,HR-IXPWINDi_r2_v1.2.,2013-04-16 10:51:00,
2013-04-16 06:57:00,53.5,49.7,30.03,SE,137,0.0,6.0,87,0.00,,,0.00,12,HR-IXPWINDi_r2_v1.2.,2013-04-16 10:57:00,
2013-04-16 07:02:00,53.6,49.8,30.03,SE,137,0.0,6.0,87,0.00,,,0.00,18,HR-IXPWINDi_r2_v1.2.,2013-04-16 11:02:00,
2013-04-16 07:07:00,53.8,50.0,30.03,SE,137,2.0,4.0,87,0.00,,,0.00,25,HR-IXPWINDi_r2_v1.2.,2013-04-16 11:07:00,
2013-04-16 07:12:00,53.9,50.1,30.03,SE,137,2.0,4.0,87,0.00,,,0.00,39,HR-IXPWINDi_r2_v1.2.,2013-04-16 11:12:00,
2013-04-16 07:17:00,54.2,50.4,30.03,SE,137,0.0,4.0,87,0.00,,,0.00,62,HR-IXPWINDi_r2_v1.2.,2013-04-16 11:17:00,
2013-04-16 07:22:00,54.4,50.5,30.03,SE,137,0.0,4.0,87,0.00,,,0.00,76,HR-IXPWINDi_r2_v1.2.,2013-04-16 11:22:00,
2013-04-16 07:28:00,54.8,50.9,30.03,SE,141,5.0,6.0,87,0.00,,,0.00,95,HR-IXPWINDi_r2_v1.2.,2013-04-16 11:28:00,
2013-04-16 07:33:00,55.6,51.4,30.03,SSE,161,1.0,7.0,86,0.00,,,0.00,86,HR-IXPWINDi_r2_v1.2.,2013-04-16 11:33:00,
2013-04-16 07:38:00,56.0,51.5,30.04,South,169,1.0,7.0,85,0.00,,,0.00,81,HR-IXPWINDi_r2_v1.2.,2013-04-16 11:38:00,
2013-04-16 07:43:00,56.5,51.7,30.04,SSE,150,6.0,10.0,84,0.00,,,0.00,83,HR-IXPWINDi_r2_v1.2.,2013-04-16 11:43:00,
2013-04-16 07:48:00,57.0,51.5,30.04,South,174,6.0,10.0,82,0.00,,,0.00,69,HR-IXPWINDi_r2_v1.2.,2013-04-16 11:48:00,
2013-04-16 07:53:00,57.5,51.7,30.04,South,176,2.0,16.0,81,0.00,,,0.00,72,HR-IXPWINDi_r2_v1.2.,2013-04-16 11:53:00,
2013-04-16 07:58:00,58.0,51.8,30.04,SSE,160,2.0,16.0,80,0.00,,,0.00,91,HR-IXPWINDi_r2_v1.2.,2013-04-16 11:58:00,
2013-04-16 08:03:00,58.4,51.9,30.04,South,177,1.0,11.0,79,0.00,,,0.00,111,HR-IXPWINDi_r2_v1.2.,2013-04-16 12:03:00,
2013-04-16 08:08:00,58.7,51.8,30.04,SSE,150,3.0,9.0,78,0.00,,,0.00,95,HR-IXPWINDi_r2_v1.2.,2013-04-16 12:08:00,
2013-04-16 08:14:00,59.2,52.3,30.04,SSE,158,4.0,10.0,78,0.00,,,0.00,91,HR-IXPWINDi_r2_v1.2.,2013-04-16 12:14:00,
2013-04-16 08:19:00,59.3,52.0,30.04,South,177,3.0,10.0,77,0.00,,,0.00,91,HR-IXPWINDi_r2_v1.2.,2013-04-16 12:19:00,
2013-04-16 08:24:00,59.6,52.0,30.05,South,178,3.0,10.0,76,0.00,,,0.00,93,HR-IXPWINDi_r2_v1.2.,2013-04-16 12:24:00,
2013-04-16 08:29:00,60.1,52.1,30.05,SSW,192,7.0,12.0,75,0.00,,,0.00,185,HR-IXPWINDi_r2_v1.2.,2013-04-16 12:29:00,
2013-04-16 08:34:00,60.5,52.5,30.05,SSE,163,12.0,15.0,75,0.00,,,0.00,276,HR-IXPWINDi_r2_v1.2.,2013-04-16 12:34:00,
2013-04-16 08:39:00,61.2,52.8,30.06,SSW,212,5.0,15.0,74,0.00,,,0.00,239,HR-IXPWINDi_r2_v1.2.,2013-04-16 12:39:00,
2013-04-16 08:44:00,61.6,52.4,30.06,South,178,5.0,18.0,72,0.00,,,0.00,251,HR-IXPWINDi_r2_v1.2.,2013-04-16 12:44:00,
2013-04-16 08:49:00,62.1,52.5,30.06,SW,231,10.0,18.0,71,0.00,,,0.00,234,HR-IXPWINDi_r2_v1.2.,2013-04-16 12:49:00,
2013-04-16 08:54:00,62.4,52.8,30.05,SSW,212,9.0,17.0,71,0.00,,,0.00,197,HR-IXPWINDi_r2_v1.2.,2013-04-16 12:54:00,
2013-04-16 09:00:00,62.7,52.7,30.05,South,186,12.0,17.0,70,0.00,,,0.00,229,HR-IXPWINDi_r2_v1.2.,2013-04-16 13:00:00,
2013-04-16 09:05:00,63.1,53.1,30.05,SSW,196,5.0,16.0,70,0.00,,,0.00,246,HR-IXPWINDi_r2_v1.2.,2013-04-16 13:05:00,
2013-04-16 09:10:00,63.4,53.0,30.06,South,178,10.0,16.0,69,0.00,,,0.00,84,HR-IXPWINDi_r2_v1.2.,2013-04-16 13:10:00,
2013-04-16 09:15:00,63.5,53.5,30.06,SSW,201,13.0,15.0,70,0.00,,,0.00,42,HR-IXPWINDi_r2_v1.2.,2013-04-16 13:15:00,
2013-04-16 09:20:00,63.4,53.4,30.06,South,176,2.0,16.0,70,0.00,,,0.00,86,HR-IXPWINDi_r2_v1.2.,2013-04-16 13:20:00,
2013-04-16 09:25:00,63.4,53.8,30.06,SSW,194,5.0,16.0,71,0.00,,,0.00,111,HR-IXPWINDi_r2_v1.2.,2013-04-16 13:25:00,
2013-04-16 09:30:00,63.4,53.8,30.06,South,178,4.0,12.0,71,0.00,,,0.00,352,HR-IXPWINDi_r2_v1.2.,2013-04-16 13:30:00,
2013-04-16 09:35:00,63.7,54.4,30.06,SSE,160,3.0,12.0,72,0.00,,,0.00,431,HR-IXPWINDi_r2_v1.2.,2013-04-16 13:35:00,
2013-04-16 09:41:00,64.2,54.9,30.05,SSW,205,5.0,12.0,72,0.00,,,0.00,265,HR-IXPWINDi_r2_v1.2.,2013-04-16 13:41:00,
2013-04-16 09:46:00,64.5,54.8,30.05,South,191,6.0,13.0,71,0.00,,,0.00,369,HR-IXPWINDi_r2_v1.2.,2013-04-16 13:46:00,
2013-04-16 09:51:00,65.0,54.5,30.05,South,189,9.0,13.0,69,0.00,,,0.00,257,HR-IXPWINDi_r2_v1.2.,2013-04-16 13:51:00,
2013-04-16 09:57:00,65.3,54.4,30.04,South,187,7.0,18.0,68,0.00,,,0.00,202,HR-IXPWINDi_r2_v1.2.,2013-04-16 13:57:00,
2013-04-16 10:02:00,66.0,54.7,30.04,South,189,11.0,18.0,67,0.00,,,0.00,519,HR-IXPWINDi_r2_v1.2.,2013-04-16 14:02:00,
2013-04-16 10:07:00,66.8,55.4,30.04,South,187,13.0,22.0,67,0.00,,,0.00,571,HR-IXPWINDi_r2_v1.2.,2013-04-16 14:07:00,
2013-04-16 10:12:00,67.3,55.5,30.04,SSW,201,7.0,22.0,66,0.00,,,0.00,272,HR-IXPWINDi_r2_v1.2.,2013-04-16 14:12:00,
2013-04-16 10:17:00,67.8,56.0,30.04,SW,216,10.0,16.0,66,0.00,,,0.00,708,HR-IXPWINDi_r2_v1.2.,2013-04-16 14:17:00,
2013-04-16 10:22:00,68.6,56.3,30.05,South,188,17.0,21.0,65,0.00,,,0.00,874,HR-IXPWINDi_r2_v1.2.,2013-04-16 14:22:00,
2013-04-16 10:28:00,69.1,56.4,30.05,SW,224,15.0,21.0,64,0.00,,,0.00,345,HR-IXPWINDi_r2_v1.2.,2013-04-16 14:28:00,
2013-04-16 10:33:00,69.4,56.6,30.05,South,184,10.0,19.0,64,0.00,,,0.00,285,HR-IXPWINDi_r2_v1.2.,2013-04-16 14:33:00,
2013-04-16 10:38:00,69.6,55.9,30.05,SSW,201,9.0,19.0,62,0.00,,,0.00,248,HR-IXPWINDi_r2_v1.2.,2013-04-16 14:38:00,
2013-04-16 10:43:00,69.8,56.6,30.05,SSW,212,10.0,14.0,63,0.00,,,0.00,279,HR-IXPWINDi_r2_v1.2.,2013-04-16 14:43:00,
2013-04-16 10:48:00,69.9,56.2,30.05,SW,229,4.0,14.0,62,0.00,,,0.00,223,HR-IXPWINDi_r2_v1.2.,2013-04-16 14:48:00,
2013-04-16 10:53:00,69.9,56.7,30.05,SSW,208,11.0,14.0,63,0.00,,,0.00,141,HR-IXPWINDi_r2_v1.2.,2013-04-16 14:53:00,
2013-04-16 10:59:00,69.8,56.6,30.05,SSW,203,5.0,20.0,63,0.00,,,0.00,234,HR-IXPWINDi_r2_v1.2.,2013-04-16 14:59:00,
2013-04-16 11:04:00,69.8,56.6,30.05,NNW,328,9.0,20.0,63,0.00,,,0.00,255,HR-IXPWINDi_r2_v1.2.,2013-04-16 15:04:00,
2013-04-16 11:09:00,69.8,57.0,30.06,SSW,196,6.0,16.0,64,0.00,,,0.00,264,HR-IXPWINDi_r2_v1.2.,2013-04-16 15:09:00,
2013-04-16 11:14:00,69.9,57.1,30.06,WNW,302,3.0,16.0,64,0.00,,,0.00,295,HR-IXPWINDi_r2_v1.2.,2013-04-16 15:14:00,
2013-04-16 11:19:00,70.1,56.9,30.06,SW,221,11.0,18.0,63,0.00,,,0.00,290,HR-IXPWINDi_r2_v1.2.,2013-04-16 15:19:00,
2013-04-16 11:24:00,70.3,57.5,30.05,SW,215,12.0,18.0,64,0.00,,,0.00,302,HR-IXPWINDi_r2_v1.2.,2013-04-16 15:24:00,
2013-04-16 11:29:00,70.4,57.6,30.05,SW,229,1.0,18.0,64,0.00,,,0.00,285,HR-IXPWINDi_r2_v1.2.,2013-04-16 15:29:00,
2013-04-16 11:35:00,70.4,57.1,30.05,SSW,204,10.0,20.0,63,0.00,,,0.00,227,HR-IXPWINDi_r2_v1.2.,2013-04-16 15:35:00,
2013-04-16 11:40:00,70.4,57.6,30.05,SW,219,17.0,20.0,64,0.00,,,0.00,475,HR-IXPWINDi_r2_v1.2.,2013-04-16 15:40:00,
2013-04-16 11:45:00,70.9,58.1,30.05,SW,225,13.0,20.0,64,0.00,,,0.00,817,HR-IXPWINDi_r2_v1.2.,2013-04-16 15:45:00,
2013-04-16 11:50:00,71.5,58.2,30.05,SW,234,12.0,21.0,63,0.00,,,0.00,849,HR-IXPWINDi_r2_v1.2.,2013-04-16 15:50:00,
2013-04-16 11:55:00,72.1,58.8,30.05,SSW,196,11.0,21.0,63,0.00,,,0.00,1116,HR-IXPWINDi_r2_v1.2.,2013-04-16 15:55:00,
2013-04-16 12:01:00,72.7,58.4,30.05,SW,216,6.0,18.0,61,0.00,,,0.00,534,HR-IXPWINDi_r2_v1.2.,2013-04-16 16:01:00,
2013-04-16 12:06:00,72.8,58.1,30.05,SW,217,17.0,17.0,60,0.00,,,0.00,295,HR-IXPWINDi_r2_v1.2.,2013-04-16 16:06:00,
2013-04-16 12:11:00,72.8,58.1,30.05,SW,234,15.0,19.0,60,0.00,,,0.00,353,HR-IXPWINDi_r2_v1.2.,2013-04-16 16:11:00,
2013-04-16 12:16:00,72.3,57.6,30.05,SW,224,14.0,19.0,60,0.00,,,0.00,229,HR-IXPWINDi_r2_v1.2.,2013-04-16 16:16:00,
2013-04-16 12:22:00,72.0,58.2,30.05,SSW,210,11.0,20.0,62,0.00,,,0.00,330,HR-IXPWINDi_r2_v1.2.,2013-04-16 16:22:00,
2013-04-16 12:27:00,72.0,57.8,30.05,South,181,3.0,20.0,61,0.00,,,0.00,213,HR-IXPWINDi_r2_v1.2.,2013-04-16 16:27:00,
2013-04-16 12:32:00,72.1,57.9,30.05,SW,224,12.0,17.0,61,0.00,,,0.00,213,HR-IXPWINDi_r2_v1.2.,2013-04-16 16:32:00,
2013-04-16 12:38:00,72.1,58.3,30.05,SSW,210,3.0,17.0,62,0.00,,,0.00,137,HR-IXPWINDi_r2_v1.2.,2013-04-16 16:38:00,
2013-04-16 12:43:00,72.0,57.8,30.05,SW,217,7.0,17.0,61,0.00,,,0.00,197,HR-IXPWINDi_r2_v1.2.,2013-04-16 16:43:00,
2013-04-16 12:48:00,72.0,58.7,30.05,South,184,14.0,14.0,63,0.00,,,0.00,599,HR-IXPWINDi_r2_v1.2.,2013-04-16 16:48:00,
2013-04-16 12:53:00,72.3,58.9,30.04,SSW,202,7.0,14.0,63,0.00,,,0.00,575,HR-IXPWINDi_r2_v1.2.,2013-04-16 16:53:00,
2013-04-16 12:59:00,73.0,58.7,30.04,SW,230,7.0,19.0,61,0.00,,,0.00,972,HR-IXPWINDi_r2_v1.2.,2013-04-16 16:59:00,
2013-04-16 13:04:00,73.3,58.5,30.04,South,189,9.0,19.0,60,0.00,,,0.00,223,HR-IXPWINDi_r2_v1.2.,2013-04-16 17:04:00,
2013-04-16 13:09:00,73.2,58.4,30.04,SSW,207,14.0,17.0,60,0.00,,,0.00,251,HR-IXPWINDi_r2_v1.2.,2013-04-16 17:09:00,
2013-04-16 13:14:00,72.8,58.1,30.04,SSW,212,16.0,16.0,60,0.00,,,0.00,225,HR-IXPWINDi_r2_v1.2.,2013-04-16 17:14:00,
2013-04-16 13:19:00,72.7,58.4,30.04,SSW,207,8.0,18.0,61,0.00,,,0.00,171,HR-IXPWINDi_r2_v1.2.,2013-04-16 17:19:00,
2013-04-16 13:24:00,72.7,58.0,30.04,SSW,192,7.0,18.0,60,0.00,,,0.00,144,HR-IXPWINDi_r2_v1.2.,2013-04-16 17:24:00,
2013-04-16 13:29:00,72.5,57.8,30.04,SSW,201,8.0,17.0,60,0.00,,,0.00,183,HR-IXPWINDi_r2_v1.2.,2013-04-16 17:29:00,
2013-04-16 13:35:00,72.7,58.4,30.04,SSW,208,14.0,17.0,61,0.00,,,0.00,221,HR-IXPWINDi_r2_v1.2.,2013-04-16 17:35:00,
2013-04-16 13:40:00,72.7,58.9,30.04,SSW,210,5.0,17.0,62,0.00,,,0.00,171,HR-IXPWINDi_r2_v1.2.,2013-04-16 17:40:00,
2013-04-16 13:45:00,72.7,58.9,30.04,SW,231,2.0,14.0,62,0.00,,,0.00,116,HR-IXPWINDi_r2_v1.2.,2013-04-16 17:45:00,
2013-04-16 13:50:00,72.7,58.9,30.04,SSW,193,7.0,12.0,62,0.00,,,0.00,190,HR-IXPWINDi_r2_v1.2.,2013-04-16 17:50:00,
2013-04-16 13:55:00,72.7,59.3,30.03,West,267,4.0,11.0,63,0.00,,,0.00,338,HR-IXPWINDi_r2_v1.2.,2013-04-16 17:55:00,
2013-04-16 14:00:00,73.0,59.6,30.03,SSW,210,9.0,13.0,63,0.00,,,0.00,244,HR-IXPWINDi_r2_v1.2.,2013-04-16 18:00:00,
2013-04-16 14:05:00,73.0,59.2,30.03,SW,215,12.0,15.0,62,0.00,,,0.00,181,HR-IXPWINDi_r2_v1.2.,2013-04-16 18:05:00,
2013-04-16 14:11:00,73.2,58.9,30.03,SSW,211,9.0,16.0,61,0.00,,,0.00,169,HR-IXPWINDi_r2_v1.2.,2013-04-16 18:11:00,
2013-04-16 14:16:00,73.0,59.2,30.03,SSW,201,10.0,16.0,62,0.00,,,0.00,193,HR-IXPWINDi_r2_v1.2.,2013-04-16 18:16:00,
2013-04-16 14:21:00,73.0,59.2,30.03,SW,227,13.0,14.0,62,0.00,,,0.00,197,HR-IXPWINDi_r2_v1.2.,2013-04-16 18:21:00,
2013-04-16 14:26:00,73.0,59.2,30.02,WSW,240,11.0,14.0,62,0.00,,,0.00,183,HR-IXPWINDi_r2_v1.2.,2013-04-16 18:26:00,
2013-04-16 14:31:00,72.8,58.5,30.02,SSW,204,9.0,16.0,61,0.00,,,0.00,292,HR-IXPWINDi_r2_v1.2.,2013-04-16 18:31:00,
2013-04-16 14:36:00,73.0,58.7,30.00,SSW,192,7.0,16.0,61,0.00,,,0.00,323,HR-IXPWINDi_r2_v1.2.,2013-04-16 18:36:00,
2013-04-16 14:42:00,73.2,58.9,30.00,SSE,163,5.0,14.0,61,0.00,,,0.00,427,HR-IXPWINDi_r2_v1.2.,2013-04-16 18:42:00,
2013-04-16 14:47:00,73.7,58.9,30.00,SW,216,9.0,14.0,60,0.00,,,0.00,320,HR-IXPWINDi_r2_v1.2.,2013-04-16 18:47:00,
2013-04-16 14:52:00,74.0,58.2,29.99,SE,142,17.0,21.0,58,0.00,,,0.00,299,HR-IXPWINDi_r2_v1.2.,2013-04-16 18:52:00,
2013-04-16 14:57:00,74.6,59.3,29.99,SE,143,9.0,21.0,59,0.00,,,0.00,570,HR-IXPWINDi_r2_v1.2.,2013-04-16 18:57:00,
2013-04-16 15:02:00,74.9,59.1,29.99,SSW,199,11.0,17.0,58,0.00,,,0.00,316,HR-IXPWINDi_r2_v1.2.,2013-04-16 19:02:00,
2013-04-16 15:08:00,75.1,58.8,29.99,West,277,4.0,20.0,57,0.00,,,0.00,496,HR-IXPWINDi_r2_v1.2.,2013-04-16 19:08:00,
2013-04-16 15:13:00,75.1,59.3,29.99,SW,229,14.0,20.0,58,0.00,,,0.00,566,HR-IXPWINDi_r2_v1.2.,2013-04-16 19:13:00,
2013-04-16 15:18:00,75.1,58.8,29.99,South,187,10.0,18.0,57,0.00,,,0.00,378,HR-IXPWINDi_r2_v1.2.,2013-04-16 19:18:00,
2013-04-16 15:23:00,75.3,58.5,29.99,South,179,12.0,19.0,56,0.00,,,0.00,336,HR-IXPWINDi_r2_v1.2.,2013-04-16 19:23:00,
2013-04-16 15:29:00,75.4,59.1,29.99,SW,224,13.0,19.0,57,0.00,,,0.00,258,HR-IXPWINDi_r2_v1.2.,2013-04-16 19:29:00,
2013-04-16 15:34:00,75.4,58.6,29.99,SW,224,3.0,16.0,56,0.00,,,0.00,248,HR-IXPWINDi_r2_v1.2.,2013-04-16 19:34:00,
2013-04-16 15:39:00,75.4,59.5,29.99,SSW,211,9.0,16.0,58,0.00,,,0.00,290,HR-IXPWINDi_r2_v1.2.,2013-04-16 19:39:00,
2013-04-16 15:44:00,75.4,59.1,29.99,South,191,15.0,15.0,57,0.00,,,0.00,313,HR-IXPWINDi_r2_v1.2.,2013-04-16 19:44:00,
2013-04-16 15:50:00,75.4,59.1,29.99,SW,220,9.0,16.0,57,0.00,,,0.00,241,HR-IXPWINDi_r2_v1.2.,2013-04-16 19:50:00,
2013-04-16 15:55:00,75.4,59.5,29.99,WSW,244,6.0,16.0,58,0.00,,,0.00,308,HR-IXPWINDi_r2_v1.2.,2013-04-16 19:55:00,
2013-04-16 16:00:00,75.6,59.7,29.99,SW,226,3.0,13.0,58,0.00,,,0.00,257,HR-IXPWINDi_r2_v1.2.,2013-04-16 20:00:00,
2013-04-16 16:05:00,75.8,59.9,29.99,West,275,1.0,11.0,58,0.00,,,0.00,355,HR-IXPWINDi_r2_v1.2.,2013-04-16 20:05:00,
2013-04-16 16:10:00,76.1,60.7,29.97,SSW,196,3.0,10.0,59,0.00,,,0.00,387,HR-IXPWINDi_r2_v1.2.,2013-04-16 20:10:00,
2013-04-16 16:15:00,76.7,59.3,29.97,South,180,3.0,10.0,55,0.00,,,0.00,285,HR-IXPWINDi_r2_v1.2.,2013-04-16 20:15:00,
2013-04-16 16:21:00,77.2,59.7,29.97,SW,222,3.0,10.0,55,0.00,,,0.00,232,HR-IXPWINDi_r2_v1.2.,2013-04-16 20:21:00,
2013-04-16 16:26:00,77.6,60.1,29.97,SW,230,6.0,10.0,55,0.00,,,0.00,197,HR-IXPWINDi_r2_v1.2.,2013-04-16 20:26:00,
2013-04-16 16:31:00,77.6,59.6,29.97,South,189,5.0,10.0,54,0.00,,,0.00,318,HR-IXPWINDi_r2_v1.2.,2013-04-16 20:31:00,
2013-04-16 16:37:00,77.6,59.6,29.97,South,178,6.0,16.0,54,0.00,,,0.00,163,HR-IXPWINDi_r2_v1.2.,2013-04-16 20:37:00,
2013-04-16 16:42:00,77.6,59.1,29.97,SSW,209,11.0,16.0,53,0.00,,,0.00,271,HR-IXPWINDi_r2_v1.2.,2013-04-16 20:42:00,
2013-04-16 16:47:00,77.6,59.1,29.97,SSW,208,9.0,19.0,53,0.00,,,0.00,313,HR-IXPWINDi_r2_v1.2.,2013-04-16 20:47:00,
2013-04-16 16:52:00,77.6,59.1,29.97,SW,218,9.0,19.0,53,0.00,,,0.00,325,HR-IXPWINDi_r2_v1.2.,2013-04-16 20:52:00,
2013-04-16 16:57:00,77.9,59.9,29.97,NW,304,5.0,17.0,54,0.00,,,0.00,487,HR-IXPWINDi_r2_v1.2.,2013-04-16 20:57:00,
2013-04-16 17:03:00,78.3,59.2,29.97,West,281,3.0,21.0,52,0.00,,,0.00,457,HR-IXPWINDi_r2_v1.2.,2013-04-16 21:03:00,
2013-04-16 17:08:00,78.3,58.6,29.97,SW,232,12.0,21.0,51,0.00,,,0.00,181,HR-IXPWINDi_r2_v1.2.,2013-04-16 21:08:00,
2013-04-16 17:13:00,78.1,60.1,29.97,WSW,254,9.0,17.0,54,0.00,,,0.00,253,HR-IXPWINDi_r2_v1.2.,2013-04-16 21:13:00,
2013-04-16 17:18:00,78.3,60.2,29.97,SSW,192,0.0,17.0,54,0.00,,,0.00,79,HR-IXPWINDi_r2_v1.2.,2013-04-16 21:18:00,
2013-04-16 17:24:00,77.9,58.8,29.97,NW,309,8.0,21.0,52,0.00,,,0.00,142,HR-IXPWINDi_r2_v1.2.,2013-04-16 21:24:00,
2013-04-16 17:29:00,77.7,59.7,29.97,SSW,198,4.0,21.0,54,0.00,,,0.00,466,HR-IXPWINDi_r2_v1.2.,2013-04-16 21:29:00,
2013-04-16 17:34:00,77.9,59.3,29.97,SW,219,3.0,16.0,53,0.00,,,0.00,424,HR-IXPWINDi_r2_v1.2.,2013-04-16 21:34:00,
2013-04-16 17:39:00,78.1,59.5,29.97,WNW,302,4.0,16.0,53,0.00,,,0.00,134,HR-IXPWINDi_r2_v1.2.,2013-04-16 21:39:00,
2013-04-16 17:44:00,78.1,59.5,29.97,WNW,289,0.0,14.0,53,0.00,,,0.00,128,HR-IXPWINDi_r2_v1.2.,2013-04-16 21:44:00,
2013-04-16 17:49:00,77.9,59.9,29.97,WSW,238,5.0,11.0,54,0.00,,,0.00,446,HR-IXPWINDi_r2_v1.2.,2013-04-16 21:49:00,
2013-04-16 17:54:00,77.9,59.3,29.97,SW,229,4.0,13.0,53,0.00,,,0.00,336,HR-IXPWINDi_r2_v1.2.,2013-04-16 21:54:00,
2013-04-16 17:59:00,78.3,59.2,29.97,NW,317,4.0,13.0,52,0.00,,,0.00,323,HR-IXPWINDi_r2_v1.2.,2013-04-16 21:59:00,
2013-04-16 18:05:00,78.5,58.8,29.97,WNW,300,12.0,13.0,51,0.00,,,0.00,294,HR-IXPWINDi_r2_v1.2.,2013-04-16 22:05:00,
2013-04-16 18:10:00,78.5,59.4,29.97,West,279,1.0,13.0,52,0.00,,,0.00,274,HR-IXPWINDi_r2_v1.2.,2013-04-16 22:10:00,
2013-04-16 18:15:00,78.5,59.4,29.97,WNW,302,4.0,12.0,52,0.00,,,0.00,258,HR-IXPWINDi_r2_v1.2.,2013-04-16 22:15:00,
2013-04-16 18:20:00,78.5,59.4,29.97,NW,305,0.0,12.0,52,0.00,,,0.00,243,HR-IXPWINDi_r2_v1.2.,2013-04-16 22:20:00,
2013-04-16 18:25:00,78.5,58.8,29.97,West,281,4.0,10.0,51,0.00,,,0.00,227,HR-IXPWINDi_r2_v1.2.,2013-04-16 22:25:00,
2013-04-16 18:30:00,78.5,58.8,29.97,SW,233,1.0,10.0,51,0.00,,,0.00,200,HR-IXPWINDi_r2_v1.2.,2013-04-16 22:30:00,
2013-04-16 18:35:00,78.3,59.2,29.97,WNW,287,9.0,10.0,52,0.00,,,0.00,190,HR-IXPWINDi_r2_v1.2.,2013-04-16 22:35:00,
2013-04-16 18:40:00,78.1,58.5,29.97,WNW,296,4.0,11.0,51,0.00,,,0.00,172,HR-IXPWINDi_r2_v1.2.,2013-04-16 22:40:00,
2013-04-16 18:45:00,78.1,58.5,29.97,SW,218,7.0,11.0,51,0.00,,,0.00,155,HR-IXPWINDi_r2_v1.2.,2013-04-16 22:45:00,
2013-04-16 18:50:00,77.9,58.8,29.97,SW,228,0.0,10.0,52,0.00,,,0.00,93,HR-IXPWINDi_r2_v1.2.,2013-04-16 22:50:00,
2013-04-16 18:56:00,77.7,58.1,29.97,WNW,302,4.0,10.0,51,0.00,,,0.00,47,HR-IXPWINDi_r2_v1.2.,2013-04-16 22:56:00,
2013-04-16 19:01:00,77.4,58.3,29.97,SSW,212,1.0,8.0,52,0.00,,,0.00,37,HR-IXPWINDi_r2_v1.2.,2013-04-16 23:01:00,
2013-04-16 19:06:00,77.2,58.2,29.97,WSW,242,0.0,7.0,52,0.00,,,0.00,23,HR-IXPWINDi_r2_v1.2.,2013-04-16 23:06:00,
2013-04-16 19:11:00,76.8,58.3,29.97,NW,304,3.0,5.0,53,0.00,,,0.00,21,HR-IXPWINDi_r2_v1.2.,2013-04-16 23:11:00,
2013-04-16 19:16:00,76.7,58.2,29.97,West,276,0.0,5.0,53,0.00,,,0.00,21,HR-IXPWINDi_r2_v1.2.,2013-04-16 23:16:00,
2013-04-16 19:21:00,76.3,58.4,29.96,West,276,0.0,4.0,54,0.00,,,0.00,18,HR-IXPWINDi_r2_v1.2.,2013-04-16 23:21:00,
2013-04-16 19:27:00,76.1,58.2,29.96,West,276,0.0,1.0,54,0.00,,,0.00,12,HR-IXPWINDi_r2_v1.2.,2013-04-16 23:27:00,
2013-04-16 19:32:00,76.0,58.1,29.96,West,276,0.0,1.0,54,0.00,,,0.00,9,HR-IXPWINDi_r2_v1.2.,2013-04-16 23:32:00,
2013-04-16 19:37:00,75.8,58.4,29.96,West,276,0.0,1.0,55,0.00,,,0.00,0,HR-IXPWINDi_r2_v1.2.,2013-04-16 23:37:00,
2013-04-16 19:42:00,75.6,58.2,29.96,West,276,0.0,1.0,55,0.00,,,0.00,0,HR-IXPWINDi_r2_v1.2.,2013-04-16 23:42:00,
2013-04-16 19:47:00,75.4,58.6,29.96,West,276,1.0,1.0,56,0.00,,,0.00,0,HR-IXPWINDi_r2_v1.2.,2013-04-16 23:47:00,
2013-04-16 19:53:00,75.1,59.3,29.98,NW,306,0.0,1.0,58,0.00,,,0.00,0,HR-IXPWINDi_r2_v1.2.,2013-04-16 23:53:00,
2013-04-16 19:58:00,74.6,59.3,29.98,North,3,4.0,15.0,59,0.00,,,0.00,0,HR-IXPWINDi_r2_v1.2.,2013-04-16 23:58:00,
2013-04-16 20:03:00,73.2,60.2,29.98,West,281,6.0,15.0,64,0.00,,,0.01,0,HR-IXPWINDi_r2_v1.2.,2013-04-17 00:03:00,
2013-04-16 20:08:00,69.9,60.8,30.07,WNW,292,4.0,16.0,73,2.94,,,0.22,0,HR-IXPWINDi_r2_v1.2.,2013-04-17 00:08:00,
2013-04-16 20:14:00,66.6,60.2,30.07,NW,317,14.0,16.0,80,1.54,,,0.43,0,HR-IXPWINDi_r2_v1.2.,2013-04-17 00:14:00,
2013-04-16 20:19:00,64.5,59.5,30.07,NW,322,0.0,17.0,84,0.38,,,0.48,0,HR-IXPWINDi_r2_v1.2.,2013-04-17 00:19:00,
2013-04-16 20:24:00,63.5,59.5,30.10,NW,322,0.0,14.0,87,0.15,,,0.50,0,HR-IXPWINDi_r2_v1.2.,2013-04-17 00:24:00,
2013-04-16 20:29:00,62.9,59.5,30.10,NW,322,0.0,6.0,89,0.11,,,0.50,0,HR-IXPWINDi_r2_v1.2.,2013-04-17 00:29:00,
2013-04-16 20:34:00,62.6,59.6,30.10,NW,322,0.0,5.0,90,0.14,,,0.52,0,HR-IXPWINDi_r2_v1.2.,2013-04-17 00:34:00,
2013-04-16 20:39:00,62.3,59.6,30.10,NNW,347,2.0,5.0,91,0.42,,,0.54,0,HR-IXPWINDi_r2_v1.2.,2013-04-17 00:39:00,
2013-04-16 20:45:00,62.0,59.6,30.10,NNW,337,2.0,7.0,92,0.23,,,0.56,0,HR-IXPWINDi_r2_v1.2.,2013-04-17 00:45:00,
2013-04-16 20:50:00,62.0,59.9,30.10,North,352,0.0,7.0,93,0.26,,,0.59,0,HR-IXPWINDi_r2_v1.2.,2013-04-17 00:50:00,
2013-04-16 20:55:00,62.0,60.2,30.09,North,0,0.0,7.0,94,0.27,,,0.61,0,HR-IXPWINDi_r2_v1.2.,2013-04-17 00:55:00,
2013-04-16 21:00:00,61.8,60.3,30.09,North,6,0.0,5.0,95,0.37,,,0.64,0,HR-IXPWINDi_r2_v1.2.,2013-04-17 01:00:00,
2013-04-16 21:05:00,61.6,60.1,30.09,NNW,341,2.0,5.0,95,0.25,,,0.66,0,HR-IXPWINDi_r2_v1.2.,2013-04-17 01:05:00,
2013-04-16 21:10:00,61.5,60.3,30.10,North,352,0.0,5.0,96,0.11,,,0.67,0,HR-IXPWINDi_r2_v1.2.,2013-04-17 01:10:00,
2013-04-16 21:15:00,61.2,60.0,30.10,WNW,294,3.0,7.0,96,0.11,,,0.68,0,HR-IXPWINDi_r2_v1.2.,2013-04-17 01:15:00,
2013-04-16 21:20:00,60.9,59.7,30.10,North,357,3.0,8.0,96,0.11,,,0.68,0,HR-IXPWINDi_r2_v1.2.,2013-04-17 01:20:00,
2013-04-16 21:25:00,60.7,59.8,30.11,NNW,348,0.0,13.0,97,0.16,,,0.70,0,HR-IXPWINDi_r2_v1.2.,2013-04-17 01:25:00,
2013-04-16 21:30:00,60.5,59.6,30.11,NNW,340,0.0,13.0,97,0.13,,,0.71,0,HR-IXPWINDi_r2_v1.2.,2013-04-17 01:30:00,
2013-04-16 21:36:00,60.2,59.3,30.13,NW,307,2.0,10.0,97,0.13,,,0.72,0,HR-IXPWINDi_r2_v1.2.,2013-04-17 01:36:00,
2013-04-16 21:41:00,60.1,59.5,30.13,WNW,291,0.0,10.0,98,0.08,,,0.72,0,HR-IXPWINDi_r2_v1.2.,2013-04-17 01:41:00,
2013-04-16 21:47:00,59.9,59.3,30.13,WNW,291,0.0,2.0,98,0.06,,,0.73,0,HR-IXPWINDi_r2_v1.2.,2013-04-17 01:47:00,
2013-04-16 21:52:00,59.9,59.3,30.12,WNW,291,0.0,1.0,98,0.12,,,0.74,0,HR-IXPWINDi_r2_v1.2.,2013-04-17 01:52:00,
2013-04-16 21:57:00,59.8,59.2,30.12,WNW,291,0.0,1.0,98,0.07,,,0.74,0,HR-IXPWINDi_r2_v1.2.,2013-04-17 01:57:00,
2013-04-16 22:02:00,59.8,59.2,30.12,WNW,291,0.0,3.0,98,0.05,,,0.75,0,HR-IXPWINDi_r2_v1.2.,2013-04-17 02:02:00,
2013-04-16 22:08:00,59.6,59.0,30.12,WNW,291,2.0,3.0,98,0.05,,,0.75,0,HR-IXPWINDi_r2_v1.2.,2013-04-17 02:08:00,
2013-04-16 22:13:00,59.8,59.2,30.12,South,178,5.0,5.0,98,0.07,,,0.76,0,HR-IXPWINDi_r2_v1.2.,2013-04-17 02:13:00,
2013-04-16 22:18:00,59.8,59.2,30.12,South,178,1.0,5.0,98,0.06,,,0.76,0,HR-IXPWINDi_r2_v1.2.,2013-04-17 02:18:00,
2013-04-16 22:23:00,59.6,59.0,30.11,South,178,3.0,5.0,98,0.04,,,0.76,0,HR-IXPWINDi_r2_v1.2.,2013-04-17 02:23:00,
2013-04-16 22:28:00,59.6,59.2,30.11,South,178,0.0,4.0,99,0.00,,,0.76,0,HR-IXPWINDi_r2_v1.2.,2013-04-17 02:28:00,
2013-04-16 22:33:00,59.6,59.2,30.11,South,178,0.0,4.0,99,0.00,,,0.76,0,HR-IXPWINDi_r2_v1.2.,2013-04-17 02:33:00,
2013-04-16 22:39:00,59.5,59.1,30.10,South,178,0.0,3.0,99,0.00,,,0.76,0,HR-IXPWINDi_r2_v1.2.,2013-04-17 02:39:00,
2013-04-16 22:44:00,59.5,59.1,30.10,East,101,0.0,5.0,99,0.00,,,0.77,0,HR-IXPWINDi_r2_v1.2.,2013-04-17 02:44:00,
2013-04-16 22:49:00,59.5,59.1,30.10,SE,129,0.0,5.0,99,0.00,,,0.77,0,HR-IXPWINDi_r2_v1.2.,2013-04-17 02:49:00,
2013-04-16 22:54:00,59.5,59.1,30.11,SE,129,0.0,5.0,99,0.00,,,0.77,0,HR-IXPWINDi_r2_v1.2.,2013-04-17 02:54:00,
2013-04-16 22:59:00,59.5,59.1,30.11,SE,129,0.0,3.0,99,0.00,,,0.77,0,HR-IXPWINDi_r2_v1.2.,2013-04-17 02:59:00,
2013-04-16 23:04:00,59.5,59.1,30.11,SE,129,0.0,1.0,99,0.00,,,0.77,0,HR-IXPWINDi_r2_v1.2.,2013-04-17 03:04:00,
2013-04-16 23:10:00,59.5,59.1,30.10,SE,129,0.0,1.0,99,0.00,,,0.77,0,HR-IXPWINDi_r2_v1.2.,2013-04-17 03:10:00,
2013-04-16 23:15:00,59.5,59.4,30.10,SE,129,0.0,1.0,100,0.00,,,0.77,0,HR-IXPWINDi_r2_v1.2.,2013-04-17 03:15:00,
2013-04-16 23:21:00,59.5,59.4,30.10,NW,316,0.0,2.0,100,0.00,,,0.77,0,HR-IXPWINDi_r2_v1.2.,2013-04-17 03:21:00,
2013-04-16 23:26:00,59.3,59.2,30.11,NW,316,0.0,2.0,100,0.00,,,0.77,0,HR-IXPWINDi_r2_v1.2.,2013-04-17 03:26:00,
2013-04-16 23:31:00,59.3,59.2,30.11,NW,316,0.0,1.0,100,0.00,,,0.77,0,HR-IXPWINDi_r2_v1.2.,2013-04-17 03:31:00,
2013-04-16 23:36:00,59.2,59.1,30.10,NW,316,0.0,0.0,100,0.00,,,0.77,0,HR-IXPWINDi_r2_v1.2.,2013-04-17 03:36:00,
2013-04-16 23:41:00,59.2,59.1,30.10,NW,316,0.0,0.0,100,0.00,,,0.77,0,HR-IXPWINDi_r2_v1.2.,2013-04-17 03:41:00,
2013-04-16 23:47:00,59.2,59.1,30.10,NW,316,0.0,0.0,100,0.00,,,0.77,0,HR-IXPWINDi_r2_v1.2.,2013-04-17 03:47:00,
2013-04-16 23:52:00,59.0,58.9,30.10,NW,316,0.0,0.0,100,0.00,,,0.77,0,HR-IXPWINDi_r2_v1.2.,2013-04-17 03:52:00,
2013-04-16 23:57:00,58.9,58.8,30.10,NW,316,0.0,1.0,100,0.00,,,0.77,0,HR-IXPWINDi_r2_v1.2.,2013-04-17 03:57:00,